sensor_id;sensor_type;location;lat;lon;timestamp;P1;durP1;ratioP1;P2;durP2;ratioP2
76850;SDS011;65824;43.726;20.692;2023-03-01T00:01:07;25.80;;;12.30;;
76850;SDS011;65824;43.726;20.692;2023-03-01T00:03:35;26.42;;;13.10;;
76850;SDS011;65824;43.726;20.692;2023-03-01T00:06:01;24.38;;;12.88;;
76850;SDS011;65824;43.726;20.692;2023-03-01T00:08:29;28.73;;;13.20;;
76850;SDS011;65824;43.726;20.692;2023-03-01T00:13:40;22.70;;;11.55;;
76850;SDS011;65824;43.726;20.692;2023-03-01T00:16:07;27.25;;;12.60;;
76850;SDS011;65824;43.726;20.692;2023-03-01T00:18:55;23.90;;;11.07;;
76850;SDS011;65824;43.726;20.692;2023-03-01T00:21:22;21.98;;;10.60;;
76850;SDS011;65824;43.726;20.692;2023-03-01T00:23:50;22.52;;;10.77;;
76850;SDS011;65824;43.726;20.692;2023-03-01T00:26:16;20.40;;;10.23;;
76850;SDS011;65824;43.726;20.692;2023-03-01T00:28:42;21.50;;;10.60;;
76850;SDS011;65824;43.726;20.692;2023-03-01T00:31:10;22.50;;;10.10;;
76850;SDS011;65824;43.726;20.692;2023-03-01T00:33:40;26.23;;;11.32;;
76850;SDS011;65824;43.726;20.692;2023-03-01T00:36:06;23.65;;;11.80;;
76850;SDS011;65824;43.726;20.692;2023-03-01T00:38:35;23.70;;;11.52;;
76850;SDS011;65824;43.726;20.692;2023-03-01T00:41:03;22.90;;;11.43;;
76850;SDS011;65824;43.726;20.692;2023-03-01T00:43:48;24.92;;;11.73;;
76850;SDS011;65824;43.726;20.692;2023-03-01T00:46:15;20.80;;;10.43;;
76850;SDS011;65824;43.726;20.692;2023-03-01T00:48:43;21.98;;;11.13;;
76850;SDS011;65824;43.726;20.692;2023-03-01T00:51:13;24.52;;;11.90;;
76850;SDS011;65824;43.726;20.692;2023-03-01T00:53:52;22.95;;;10.98;;
76850;SDS011;65824;43.726;20.692;2023-03-01T00:56:19;20.15;;;9.82;;
76850;SDS011;65824;43.726;20.692;2023-03-01T00:58:45;22.38;;;10.15;;
76850;SDS011;65824;43.726;20.692;2023-03-01T01:03:49;21.17;;;10.40;;
76850;SDS011;65824;43.726;20.692;2023-03-01T01:06:18;22.52;;;10.15;;
76850;SDS011;65824;43.726;20.692;2023-03-01T01:08:56;22.48;;;11.13;;
76850;SDS011;65824;43.726;20.692;2023-03-01T01:11:23;21.65;;;11.15;;
76850;SDS011;65824;43.726;20.692;2023-03-01T01:13:49;22.27;;;10.68;;
76850;SDS011;65824;43.726;20.692;2023-03-01T01:16:16;24.48;;;11.55;;
76850;SDS011;65824;43.726;20.692;2023-03-01T01:18:43;23.30;;;10.82;;
76850;SDS011;65824;43.726;20.692;2023-03-01T01:21:09;23.85;;;11.48;;
76850;SDS011;65824;43.726;20.692;2023-03-01T01:23:38;25.65;;;12.23;;
76850;SDS011;65824;43.726;20.692;2023-03-01T01:26:07;24.67;;;11.88;;
76850;SDS011;65824;43.726;20.692;2023-03-01T01:28:34;21.30;;;10.65;;
76850;SDS011;65824;43.726;20.692;2023-03-01T01:31:00;20.08;;;10.68;;
76850;SDS011;65824;43.726;20.692;2023-03-01T01:33:26;22.45;;;10.48;;
76850;SDS011;65824;43.726;20.692;2023-03-01T01:35:54;21.75;;;10.90;;
76850;SDS011;65824;43.726;20.692;2023-03-01T01:38:20;25.83;;;11.32;;
76850;SDS011;65824;43.726;20.692;2023-03-01T01:40:46;24.15;;;11.50;;
76850;SDS011;65824;43.726;20.692;2023-03-01T01:43:20;25.02;;;11.23;;
76850;SDS011;65824;43.726;20.692;2023-03-01T01:45:55;20.63;;;10.18;;
76850;SDS011;65824;43.726;20.692;2023-03-01T01:48:23;23.63;;;11.32;;
76850;SDS011;65824;43.726;20.692;2023-03-01T01:50:51;21.52;;;10.32;;
76850;SDS011;65824;43.726;20.692;2023-03-01T01:53:23;23.23;;;10.80;;
76850;SDS011;65824;43.726;20.692;2023-03-01T01:55:51;22.75;;;10.20;;
76850;SDS011;65824;43.726;20.692;2023-03-01T01:58:25;19.50;;;9.80;;
76850;SDS011;65824;43.726;20.692;2023-03-01T02:00:53;20.35;;;9.48;;
76850;SDS011;65824;43.726;20.692;2023-03-01T02:03:23;23.40;;;11.65;;
76850;SDS011;65824;43.726;20.692;2023-03-01T02:05:55;24.98;;;11.95;;
76850;SDS011;65824;43.726;20.692;2023-03-01T02:08:38;23.20;;;10.73;;
76850;SDS011;65824;43.726;20.692;2023-03-01T02:11:05;24.13;;;10.75;;
76850;SDS011;65824;43.726;20.692;2023-03-01T02:13:31;24.42;;;11.05;;
76850;SDS011;65824;43.726;20.692;2023-03-01T02:15:58;24.95;;;11.70;;
76850;SDS011;65824;43.726;20.692;2023-03-01T02:18:24;24.45;;;11.70;;
76850;SDS011;65824;43.726;20.692;2023-03-01T02:23:38;25.60;;;11.57;;
76850;SDS011;65824;43.726;20.692;2023-03-01T02:28:32;22.55;;;12.07;;
76850;SDS011;65824;43.726;20.692;2023-03-01T02:30:59;25.77;;;11.93;;
76850;SDS011;65824;43.726;20.692;2023-03-01T02:33:43;23.85;;;12.27;;
76850;SDS011;65824;43.726;20.692;2023-03-01T02:36:26;24.33;;;11.07;;
76850;SDS011;65824;43.726;20.692;2023-03-01T02:38:55;26.25;;;11.45;;
76850;SDS011;65824;43.726;20.692;2023-03-01T02:41:22;22.55;;;11.52;;
76850;SDS011;65824;43.726;20.692;2023-03-01T02:43:51;21.35;;;10.48;;
76850;SDS011;65824;43.726;20.692;2023-03-01T02:46:18;23.70;;;11.70;;
76850;SDS011;65824;43.726;20.692;2023-03-01T02:48:48;24.98;;;12.27;;
76850;SDS011;65824;43.726;20.692;2023-03-01T02:51:18;23.70;;;11.20;;
76850;SDS011;65824;43.726;20.692;2023-03-01T02:53:59;24.88;;;11.73;;
76850;SDS011;65824;43.726;20.692;2023-03-01T02:56:48;23.25;;;11.52;;
76850;SDS011;65824;43.726;20.692;2023-03-01T02:59:18;24.27;;;10.90;;
76850;SDS011;65824;43.726;20.692;2023-03-01T03:01:45;23.30;;;10.68;;
76850;SDS011;65824;43.726;20.692;2023-03-01T03:04:15;27.05;;;12.48;;
76850;SDS011;65824;43.726;20.692;2023-03-01T03:06:45;23.73;;;11.20;;
76850;SDS011;65824;43.726;20.692;2023-03-01T03:09:12;23.48;;;11.63;;
76850;SDS011;65824;43.726;20.692;2023-03-01T03:11:38;25.08;;;11.13;;
76850;SDS011;65824;43.726;20.692;2023-03-01T03:14:07;22.25;;;11.02;;
76850;SDS011;65824;43.726;20.692;2023-03-01T03:16:48;23.63;;;11.07;;
76850;SDS011;65824;43.726;20.692;2023-03-01T03:19:16;25.15;;;11.68;;
76850;SDS011;65824;43.726;20.692;2023-03-01T03:21:43;21.90;;;10.88;;
76850;SDS011;65824;43.726;20.692;2023-03-01T03:24:09;23.35;;;11.30;;
76850;SDS011;65824;43.726;20.692;2023-03-01T03:26:36;25.83;;;11.15;;
76850;SDS011;65824;43.726;20.692;2023-03-01T03:29:02;24.45;;;11.43;;
76850;SDS011;65824;43.726;20.692;2023-03-01T03:31:27;22.15;;;10.93;;
76850;SDS011;65824;43.726;20.692;2023-03-01T03:33:53;22.63;;;11.13;;
76850;SDS011;65824;43.726;20.692;2023-03-01T03:36:22;23.10;;;11.90;;
76850;SDS011;65824;43.726;20.692;2023-03-01T03:38:49;23.67;;;11.73;;
76850;SDS011;65824;43.726;20.692;2023-03-01T03:41:17;25.15;;;12.38;;
76850;SDS011;65824;43.726;20.692;2023-03-01T03:43:42;22.45;;;11.15;;
76850;SDS011;65824;43.726;20.692;2023-03-01T03:46:09;22.67;;;11.15;;
76850;SDS011;65824;43.726;20.692;2023-03-01T03:48:38;20.52;;;10.60;;
76850;SDS011;65824;43.726;20.692;2023-03-01T03:51:05;22.95;;;10.95;;
76850;SDS011;65824;43.726;20.692;2023-03-01T03:53:32;20.27;;;10.20;;
76850;SDS011;65824;43.726;20.692;2023-03-01T03:55:59;20.10;;;9.65;;
76850;SDS011;65824;43.726;20.692;2023-03-01T03:58:25;20.75;;;10.38;;
76850;SDS011;65824;43.726;20.692;2023-03-01T04:00:51;18.92;;;9.45;;
76850;SDS011;65824;43.726;20.692;2023-03-01T04:03:19;19.65;;;9.48;;
76850;SDS011;65824;43.726;20.692;2023-03-01T04:05:46;18.80;;;9.38;;
76850;SDS011;65824;43.726;20.692;2023-03-01T04:08:15;20.83;;;10.07;;
76850;SDS011;65824;43.726;20.692;2023-03-01T04:10:44;22.15;;;10.68;;
76850;SDS011;65824;43.726;20.692;2023-03-01T04:13:12;23.98;;;11.55;;
76850;SDS011;65824;43.726;20.692;2023-03-01T04:15:40;25.02;;;12.25;;
76850;SDS011;65824;43.726;20.692;2023-03-01T04:18:06;32.50;;;12.52;;
76850;SDS011;65824;43.726;20.692;2023-03-01T04:20:34;25.08;;;11.95;;
76850;SDS011;65824;43.726;20.692;2023-03-01T04:25:46;23.80;;;10.35;;
76850;SDS011;65824;43.726;20.692;2023-03-01T04:28:23;25.92;;;10.82;;
76850;SDS011;65824;43.726;20.692;2023-03-01T04:30:53;24.73;;;10.85;;
76850;SDS011;65824;43.726;20.692;2023-03-01T04:33:19;23.23;;;10.85;;
76850;SDS011;65824;43.726;20.692;2023-03-01T04:35:45;23.90;;;11.00;;
76850;SDS011;65824;43.726;20.692;2023-03-01T04:38:14;23.80;;;11.10;;
76850;SDS011;65824;43.726;20.692;2023-03-01T04:40:40;21.00;;;10.15;;
76850;SDS011;65824;43.726;20.692;2023-03-01T04:43:08;23.70;;;10.98;;
76850;SDS011;65824;43.726;20.692;2023-03-01T04:45:35;21.98;;;11.93;;
76850;SDS011;65824;43.726;20.692;2023-03-01T04:48:01;22.92;;;10.85;;
76850;SDS011;65824;43.726;20.692;2023-03-01T04:50:27;23.60;;;12.60;;
76850;SDS011;65824;43.726;20.692;2023-03-01T04:52:52;25.38;;;12.05;;
76850;SDS011;65824;43.726;20.692;2023-03-01T04:55:18;23.58;;;12.05;;
76850;SDS011;65824;43.726;20.692;2023-03-01T04:57:44;26.00;;;12.20;;
76850;SDS011;65824;43.726;20.692;2023-03-01T05:00:10;23.40;;;10.82;;
76850;SDS011;65824;43.726;20.692;2023-03-01T05:02:48;22.75;;;11.68;;
76850;SDS011;65824;43.726;20.692;2023-03-01T05:05:26;20.33;;;10.20;;
76850;SDS011;65824;43.726;20.692;2023-03-01T05:07:56;20.45;;;9.95;;
76850;SDS011;65824;43.726;20.692;2023-03-01T05:10:25;22.42;;;10.75;;
76850;SDS011;65824;43.726;20.692;2023-03-01T05:12:51;22.42;;;10.80;;
76850;SDS011;65824;43.726;20.692;2023-03-01T05:15:18;23.10;;;11.30;;
76850;SDS011;65824;43.726;20.692;2023-03-01T05:17:46;23.40;;;10.70;;
76850;SDS011;65824;43.726;20.692;2023-03-01T05:20:12;21.38;;;10.65;;
76850;SDS011;65824;43.726;20.692;2023-03-01T05:22:38;22.45;;;10.80;;
76850;SDS011;65824;43.726;20.692;2023-03-01T05:25:07;21.55;;;10.65;;
76850;SDS011;65824;43.726;20.692;2023-03-01T05:27:32;23.33;;;11.05;;
76850;SDS011;65824;43.726;20.692;2023-03-01T05:29:58;24.25;;;11.30;;
76850;SDS011;65824;43.726;20.692;2023-03-01T05:32:23;23.98;;;10.75;;
76850;SDS011;65824;43.726;20.692;2023-03-01T05:34:49;21.65;;;10.98;;
76850;SDS011;65824;43.726;20.692;2023-03-01T05:37:17;23.30;;;10.02;;
76850;SDS011;65824;43.726;20.692;2023-03-01T05:39:43;23.25;;;10.93;;
76850;SDS011;65824;43.726;20.692;2023-03-01T05:42:10;22.73;;;10.75;;
76850;SDS011;65824;43.726;20.692;2023-03-01T05:44:37;23.58;;;11.52;;
76850;SDS011;65824;43.726;20.692;2023-03-01T05:47:07;23.80;;;11.75;;
76850;SDS011;65824;43.726;20.692;2023-03-01T05:49:38;24.00;;;11.07;;
76850;SDS011;65824;43.726;20.692;2023-03-01T05:52:03;23.95;;;11.93;;
76850;SDS011;65824;43.726;20.692;2023-03-01T05:54:29;24.45;;;13.18;;
76850;SDS011;65824;43.726;20.692;2023-03-01T05:56:55;26.60;;;12.95;;
76850;SDS011;65824;43.726;20.692;2023-03-01T05:59:21;29.20;;;14.02;;
76850;SDS011;65824;43.726;20.692;2023-03-01T06:01:48;27.55;;;13.60;;
76850;SDS011;65824;43.726;20.692;2023-03-01T06:04:13;28.38;;;14.50;;
76850;SDS011;65824;43.726;20.692;2023-03-01T06:06:39;27.90;;;14.70;;
76850;SDS011;65824;43.726;20.692;2023-03-01T06:09:06;30.23;;;15.32;;
76850;SDS011;65824;43.726;20.692;2023-03-01T06:11:33;30.30;;;14.05;;
76850;SDS011;65824;43.726;20.692;2023-03-01T06:14:01;29.95;;;14.50;;
76850;SDS011;65824;43.726;20.692;2023-03-01T06:16:28;31.60;;;15.07;;
76850;SDS011;65824;43.726;20.692;2023-03-01T06:18:55;31.90;;;14.95;;
76850;SDS011;65824;43.726;20.692;2023-03-01T06:21:20;26.88;;;14.23;;
76850;SDS011;65824;43.726;20.692;2023-03-01T06:23:49;28.85;;;14.15;;
76850;SDS011;65824;43.726;20.692;2023-03-01T06:26:16;40.80;;;19.45;;
76850;SDS011;65824;43.726;20.692;2023-03-01T06:28:42;42.22;;;20.35;;
76850;SDS011;65824;43.726;20.692;2023-03-01T06:31:11;38.85;;;18.90;;
76850;SDS011;65824;43.726;20.692;2023-03-01T06:33:36;39.55;;;18.60;;
76850;SDS011;65824;43.726;20.692;2023-03-01T06:36:04;38.22;;;20.48;;
76850;SDS011;65824;43.726;20.692;2023-03-01T06:38:30;41.50;;;19.48;;
76850;SDS011;65824;43.726;20.692;2023-03-01T06:40:56;35.60;;;17.40;;
76850;SDS011;65824;43.726;20.692;2023-03-01T06:43:24;35.03;;;18.05;;
76850;SDS011;65824;43.726;20.692;2023-03-01T06:45:49;36.38;;;18.30;;
76850;SDS011;65824;43.726;20.692;2023-03-01T06:48:16;34.90;;;19.10;;
76850;SDS011;65824;43.726;20.692;2023-03-01T06:50:44;35.38;;;18.27;;
76850;SDS011;65824;43.726;20.692;2023-03-01T06:53:13;39.60;;;18.85;;
76850;SDS011;65824;43.726;20.692;2023-03-01T06:55:39;36.72;;;19.23;;
76850;SDS011;65824;43.726;20.692;2023-03-01T06:58:06;32.45;;;15.77;;
76850;SDS011;65824;43.726;20.692;2023-03-01T07:00:31;33.55;;;17.10;;
76850;SDS011;65824;43.726;20.692;2023-03-01T07:03:03;34.47;;;15.10;;
76850;SDS011;65824;43.726;20.692;2023-03-01T07:05:29;26.70;;;13.93;;
76850;SDS011;65824;43.726;20.692;2023-03-01T07:07:55;22.40;;;11.43;;
76850;SDS011;65824;43.726;20.692;2023-03-01T07:10:21;23.75;;;11.82;;
76850;SDS011;65824;43.726;20.692;2023-03-01T07:12:46;27.35;;;12.98;;
76850;SDS011;65824;43.726;20.692;2023-03-01T07:15:13;25.20;;;13.55;;
76850;SDS011;65824;43.726;20.692;2023-03-01T07:17:40;24.20;;;12.88;;
76850;SDS011;65824;43.726;20.692;2023-03-01T07:20:06;24.25;;;12.27;;
76850;SDS011;65824;43.726;20.692;2023-03-01T07:22:32;28.42;;;12.80;;
76850;SDS011;65824;43.726;20.692;2023-03-01T07:24:58;30.08;;;15.18;;
76850;SDS011;65824;43.726;20.692;2023-03-01T07:27:24;28.90;;;13.93;;
76850;SDS011;65824;43.726;20.692;2023-03-01T07:29:50;33.80;;;16.17;;
76850;SDS011;65824;43.726;20.692;2023-03-01T07:32:16;27.70;;;13.18;;
76850;SDS011;65824;43.726;20.692;2023-03-01T07:34:44;31.65;;;15.40;;
76850;SDS011;65824;43.726;20.692;2023-03-01T07:37:10;34.03;;;14.75;;
76850;SDS011;65824;43.726;20.692;2023-03-01T07:39:36;31.20;;;14.38;;
76850;SDS011;65824;43.726;20.692;2023-03-01T07:42:03;30.77;;;15.07;;
76850;SDS011;65824;43.726;20.692;2023-03-01T07:44:29;27.95;;;14.30;;
76850;SDS011;65824;43.726;20.692;2023-03-01T07:46:55;26.63;;;14.27;;
76850;SDS011;65824;43.726;20.692;2023-03-01T07:49:22;26.88;;;12.25;;
76850;SDS011;65824;43.726;20.692;2023-03-01T07:51:47;28.88;;;14.02;;
76850;SDS011;65824;43.726;20.692;2023-03-01T07:54:13;61.83;;;26.55;;
76850;SDS011;65824;43.726;20.692;2023-03-01T07:56:40;48.55;;;22.95;;
76850;SDS011;65824;43.726;20.692;2023-03-01T07:59:05;31.25;;;14.85;;
76850;SDS011;65824;43.726;20.692;2023-03-01T08:01:31;39.53;;;17.48;;
76850;SDS011;65824;43.726;20.692;2023-03-01T08:03:57;38.22;;;18.33;;
76850;SDS011;65824;43.726;20.692;2023-03-01T08:06:22;37.03;;;17.05;;
76850;SDS011;65824;43.726;20.692;2023-03-01T08:08:48;33.92;;;17.13;;
76850;SDS011;65824;43.726;20.692;2023-03-01T08:11:14;31.88;;;15.95;;
76850;SDS011;65824;43.726;20.692;2023-03-01T08:13:47;29.25;;;14.07;;
76850;SDS011;65824;43.726;20.692;2023-03-01T08:16:14;33.05;;;16.10;;
76850;SDS011;65824;43.726;20.692;2023-03-01T08:18:39;29.60;;;14.13;;
76850;SDS011;65824;43.726;20.692;2023-03-01T08:21:07;27.08;;;13.25;;
76850;SDS011;65824;43.726;20.692;2023-03-01T08:23:34;24.63;;;11.65;;
76850;SDS011;65824;43.726;20.692;2023-03-01T08:26:04;23.20;;;12.32;;
76850;SDS011;65824;43.726;20.692;2023-03-01T08:28:34;24.20;;;12.52;;
76850;SDS011;65824;43.726;20.692;2023-03-01T08:31:01;23.50;;;12.68;;
76850;SDS011;65824;43.726;20.692;2023-03-01T08:33:27;25.15;;;12.35;;
76850;SDS011;65824;43.726;20.692;2023-03-01T08:36:02;27.98;;;15.40;;
76850;SDS011;65824;43.726;20.692;2023-03-01T08:38:29;27.52;;;14.63;;
76850;SDS011;65824;43.726;20.692;2023-03-01T08:40:55;26.67;;;13.38;;
76850;SDS011;65824;43.726;20.692;2023-03-01T08:43:20;24.23;;;12.73;;
76850;SDS011;65824;43.726;20.692;2023-03-01T08:45:48;23.45;;;13.57;;
76850;SDS011;65824;43.726;20.692;2023-03-01T08:48:14;26.25;;;13.45;;
76850;SDS011;65824;43.726;20.692;2023-03-01T08:50:40;25.48;;;12.65;;
76850;SDS011;65824;43.726;20.692;2023-03-01T08:53:06;28.17;;;12.93;;
76850;SDS011;65824;43.726;20.692;2023-03-01T08:55:32;27.88;;;13.77;;
76850;SDS011;65824;43.726;20.692;2023-03-01T08:58:00;26.48;;;13.68;;
76850;SDS011;65824;43.726;20.692;2023-03-01T09:00:26;22.55;;;11.95;;
76850;SDS011;65824;43.726;20.692;2023-03-01T09:02:52;24.70;;;12.65;;
76850;SDS011;65824;43.726;20.692;2023-03-01T09:05:18;26.98;;;13.77;;
76850;SDS011;65824;43.726;20.692;2023-03-01T09:07:44;24.60;;;12.38;;
76850;SDS011;65824;43.726;20.692;2023-03-01T09:10:09;23.90;;;12.88;;
76850;SDS011;65824;43.726;20.692;2023-03-01T09:12:35;28.52;;;14.27;;
76850;SDS011;65824;43.726;20.692;2023-03-01T09:15:04;28.95;;;13.18;;
76850;SDS011;65824;43.726;20.692;2023-03-01T09:17:31;26.95;;;12.95;;
76850;SDS011;65824;43.726;20.692;2023-03-01T09:20:02;26.85;;;14.07;;
76850;SDS011;65824;43.726;20.692;2023-03-01T09:22:30;29.42;;;14.63;;
76850;SDS011;65824;43.726;20.692;2023-03-01T09:24:56;32.20;;;16.63;;
76850;SDS011;65824;43.726;20.692;2023-03-01T09:27:24;28.40;;;14.23;;
76850;SDS011;65824;43.726;20.692;2023-03-01T09:29:50;26.08;;;12.63;;
76850;SDS011;65824;43.726;20.692;2023-03-01T09:32:17;29.13;;;14.20;;
76850;SDS011;65824;43.726;20.692;2023-03-01T09:34:43;25.10;;;13.38;;
76850;SDS011;65824;43.726;20.692;2023-03-01T09:37:29;23.80;;;13.32;;
76850;SDS011;65824;43.726;20.692;2023-03-01T09:39:57;26.15;;;13.70;;
76850;SDS011;65824;43.726;20.692;2023-03-01T09:42:26;28.90;;;13.45;;
76850;SDS011;65824;43.726;20.692;2023-03-01T09:45:00;22.30;;;12.05;;
76850;SDS011;65824;43.726;20.692;2023-03-01T09:47:29;24.98;;;12.98;;
76850;SDS011;65824;43.726;20.692;2023-03-01T09:52:46;23.17;;;11.65;;
76850;SDS011;65824;43.726;20.692;2023-03-01T09:55:17;25.05;;;12.98;;
76850;SDS011;65824;43.726;20.692;2023-03-01T10:01:16;21.05;;;11.45;;
76850;SDS011;65824;43.726;20.692;2023-03-01T10:12:14;22.58;;;11.32;;
76850;SDS011;65824;43.726;20.692;2023-03-01T10:17:19;21.95;;;10.18;;
76850;SDS011;65824;43.726;20.692;2023-03-01T10:19:49;22.90;;;12.05;;
76850;SDS011;65824;43.726;20.692;2023-03-01T10:22:24;19.67;;;10.80;;
76850;SDS011;65824;43.726;20.692;2023-03-01T10:24:53;22.25;;;11.68;;
76850;SDS011;65824;43.726;20.692;2023-03-01T10:27:23;22.13;;;10.32;;
76850;SDS011;65824;43.726;20.692;2023-03-01T10:32:21;24.63;;;10.90;;
76850;SDS011;65824;43.726;20.692;2023-03-01T10:34:47;22.77;;;11.32;;
76850;SDS011;65824;43.726;20.692;2023-03-01T10:37:14;20.30;;;10.57;;
76850;SDS011;65824;43.726;20.692;2023-03-01T10:42:38;18.73;;;10.00;;
76850;SDS011;65824;43.726;20.692;2023-03-01T10:51:05;20.63;;;10.68;;
76850;SDS011;65824;43.726;20.692;2023-03-01T10:53:58;20.17;;;10.15;;
76850;SDS011;65824;43.726;20.692;2023-03-01T10:56:29;17.58;;;9.20;;
76850;SDS011;65824;43.726;20.692;2023-03-01T10:59:19;21.30;;;9.80;;
76850;SDS011;65824;43.726;20.692;2023-03-01T11:05:08;20.83;;;10.45;;
76850;SDS011;65824;43.726;20.692;2023-03-01T11:07:57;18.17;;;9.65;;
76850;SDS011;65824;43.726;20.692;2023-03-01T11:10:25;20.83;;;10.52;;
76850;SDS011;65824;43.726;20.692;2023-03-01T11:13:06;25.98;;;13.27;;
76850;SDS011;65824;43.726;20.692;2023-03-01T11:15:33;23.33;;;11.23;;
76850;SDS011;65824;43.726;20.692;2023-03-01T11:17:59;21.70;;;10.93;;
76850;SDS011;65824;43.726;20.692;2023-03-01T11:20:26;24.38;;;11.27;;
76850;SDS011;65824;43.726;20.692;2023-03-01T11:23:14;22.05;;;10.63;;
76850;SDS011;65824;43.726;20.692;2023-03-01T11:25:46;20.30;;;10.27;;
76850;SDS011;65824;43.726;20.692;2023-03-01T11:28:15;18.90;;;9.85;;
76850;SDS011;65824;43.726;20.692;2023-03-01T11:30:48;18.48;;;9.45;;
76850;SDS011;65824;43.726;20.692;2023-03-01T11:39:02;23.60;;;11.45;;
76850;SDS011;65824;43.726;20.692;2023-03-01T11:41:41;25.17;;;10.43;;
76850;SDS011;65824;43.726;20.692;2023-03-01T11:44:12;23.33;;;11.27;;
76850;SDS011;65824;43.726;20.692;2023-03-01T11:46:43;26.58;;;11.57;;
76850;SDS011;65824;43.726;20.692;2023-03-01T11:52:42;27.00;;;12.30;;
76850;SDS011;65824;43.726;20.692;2023-03-01T11:58:16;20.52;;;9.98;;
76850;SDS011;65824;43.726;20.692;2023-03-01T12:07:01;21.00;;;8.70;;
76850;SDS011;65824;43.726;20.692;2023-03-01T12:09:32;19.23;;;9.10;;
76850;SDS011;65824;43.726;20.692;2023-03-01T12:12:03;24.10;;;10.57;;
76850;SDS011;65824;43.726;20.692;2023-03-01T12:25:34;18.38;;;8.70;;
76850;SDS011;65824;43.726;20.692;2023-03-01T12:33:56;20.20;;;10.30;;
76850;SDS011;65824;43.726;20.692;2023-03-01T12:36:41;25.85;;;12.60;;
76850;SDS011;65824;43.726;20.692;2023-03-01T12:47:53;19.83;;;10.30;;
76850;SDS011;65824;43.726;20.692;2023-03-01T12:53:58;19.35;;;9.75;;
76850;SDS011;65824;43.726;20.692;2023-03-01T12:56:16;19.08;;;9.68;;
76850;SDS011;65824;43.726;20.692;2023-03-01T13:01:45;23.15;;;11.52;;
76850;SDS011;65824;43.726;20.692;2023-03-01T13:04:25;24.17;;;12.77;;
76850;SDS011;65824;43.726;20.692;2023-03-01T13:09:43;21.48;;;11.80;;
76850;SDS011;65824;43.726;20.692;2023-03-01T13:15:27;16.67;;;9.60;;
76850;SDS011;65824;43.726;20.692;2023-03-01T13:18:02;18.48;;;9.85;;
76850;SDS011;65824;43.726;20.692;2023-03-01T13:33:49;20.67;;;11.07;;
76850;SDS011;65824;43.726;20.692;2023-03-01T13:39:33;18.33;;;10.45;;
76850;SDS011;65824;43.726;20.692;2023-03-01T13:45:00;21.30;;;10.20;;
76850;SDS011;65824;43.726;20.692;2023-03-01T13:47:26;18.42;;;9.80;;
76850;SDS011;65824;43.726;20.692;2023-03-01T13:49:55;18.70;;;9.90;;
76850;SDS011;65824;43.726;20.692;2023-03-01T13:57:38;33.42;;;14.27;;
76850;SDS011;65824;43.726;20.692;2023-03-01T14:00:04;23.38;;;12.45;;
76850;SDS011;65824;43.726;20.692;2023-03-01T14:02:30;19.33;;;10.68;;
76850;SDS011;65824;43.726;20.692;2023-03-01T14:04:57;24.60;;;11.98;;
76850;SDS011;65824;43.726;20.692;2023-03-01T14:07:23;24.08;;;13.05;;
76850;SDS011;65824;43.726;20.692;2023-03-01T14:09:57;26.63;;;13.40;;
76850;SDS011;65824;43.726;20.692;2023-03-01T14:18:12;32.72;;;14.95;;
76850;SDS011;65824;43.726;20.692;2023-03-01T14:20:54;30.73;;;15.48;;
76850;SDS011;65824;43.726;20.692;2023-03-01T14:23:21;25.85;;;13.93;;
76850;SDS011;65824;43.726;20.692;2023-03-01T14:25:55;25.70;;;14.13;;
76850;SDS011;65824;43.726;20.692;2023-03-01T14:31:02;20.80;;;11.20;;
76850;SDS011;65824;43.726;20.692;2023-03-01T14:33:54;20.45;;;10.60;;
76850;SDS011;65824;43.726;20.692;2023-03-01T14:38:51;20.67;;;11.63;;
76850;SDS011;65824;43.726;20.692;2023-03-01T14:41:30;27.83;;;12.85;;
76850;SDS011;65824;43.726;20.692;2023-03-01T14:44:12;26.95;;;13.23;;
76850;SDS011;65824;43.726;20.692;2023-03-01T14:46:44;23.35;;;12.85;;
76850;SDS011;65824;43.726;20.692;2023-03-01T14:51:53;27.17;;;13.68;;
76850;SDS011;65824;43.726;20.692;2023-03-01T14:54:43;20.95;;;11.48;;
76850;SDS011;65824;43.726;20.692;2023-03-01T14:57:20;22.60;;;12.38;;
76850;SDS011;65824;43.726;20.692;2023-03-01T14:59:59;25.00;;;12.40;;
76850;SDS011;65824;43.726;20.692;2023-03-01T15:02:30;24.10;;;12.25;;
76850;SDS011;65824;43.726;20.692;2023-03-01T15:04:58;24.58;;;12.32;;
76850;SDS011;65824;43.726;20.692;2023-03-01T15:07:26;21.70;;;12.07;;
76850;SDS011;65824;43.726;20.692;2023-03-01T15:09:57;27.30;;;13.15;;
76850;SDS011;65824;43.726;20.692;2023-03-01T15:12:39;28.00;;;13.45;;
76850;SDS011;65824;43.726;20.692;2023-03-01T15:15:51;30.05;;;13.25;;
76850;SDS011;65824;43.726;20.692;2023-03-01T15:18:06;26.02;;;12.50;;
76850;SDS011;65824;43.726;20.692;2023-03-01T15:20:47;25.40;;;12.05;;
76850;SDS011;65824;43.726;20.692;2023-03-01T15:23:20;25.15;;;12.50;;
76850;SDS011;65824;43.726;20.692;2023-03-01T15:25:53;25.42;;;13.07;;
76850;SDS011;65824;43.726;20.692;2023-03-01T15:28:29;27.23;;;14.13;;
76850;SDS011;65824;43.726;20.692;2023-03-01T15:30:59;22.60;;;13.50;;
76850;SDS011;65824;43.726;20.692;2023-03-01T15:33:33;26.20;;;13.48;;
76850;SDS011;65824;43.726;20.692;2023-03-01T15:36:01;25.02;;;13.10;;
76850;SDS011;65824;43.726;20.692;2023-03-01T15:41:29;23.92;;;12.88;;
76850;SDS011;65824;43.726;20.692;2023-03-01T15:43:56;26.98;;;14.27;;
76850;SDS011;65824;43.726;20.692;2023-03-01T15:49:00;34.55;;;17.38;;
76850;SDS011;65824;43.726;20.692;2023-03-01T15:51:35;40.13;;;18.60;;
76850;SDS011;65824;43.726;20.692;2023-03-01T15:54:03;29.52;;;15.57;;
76850;SDS011;65824;43.726;20.692;2023-03-01T15:56:42;26.70;;;14.00;;
76850;SDS011;65824;43.726;20.692;2023-03-01T15:59:09;30.40;;;16.00;;
76850;SDS011;65824;43.726;20.692;2023-03-01T16:01:38;29.50;;;16.25;;
76850;SDS011;65824;43.726;20.692;2023-03-01T16:04:05;25.50;;;14.25;;
76850;SDS011;65824;43.726;20.692;2023-03-01T16:06:30;26.52;;;13.93;;
76850;SDS011;65824;43.726;20.692;2023-03-01T16:09:01;26.35;;;12.23;;
76850;SDS011;65824;43.726;20.692;2023-03-01T16:11:27;24.27;;;13.77;;
76850;SDS011;65824;43.726;20.692;2023-03-01T16:13:54;26.15;;;14.02;;
76850;SDS011;65824;43.726;20.692;2023-03-01T16:16:20;24.17;;;12.55;;
76850;SDS011;65824;43.726;20.692;2023-03-01T16:18:48;22.67;;;12.20;;
76850;SDS011;65824;43.726;20.692;2023-03-01T16:21:19;23.77;;;12.57;;
76850;SDS011;65824;43.726;20.692;2023-03-01T16:23:46;21.42;;;12.95;;
76850;SDS011;65824;43.726;20.692;2023-03-01T16:26:12;20.83;;;11.38;;
76850;SDS011;65824;43.726;20.692;2023-03-01T16:28:43;23.35;;;12.98;;
76850;SDS011;65824;43.726;20.692;2023-03-01T16:31:09;25.42;;;12.77;;
76850;SDS011;65824;43.726;20.692;2023-03-01T16:33:44;23.65;;;11.95;;
76850;SDS011;65824;43.726;20.692;2023-03-01T16:36:15;25.33;;;12.88;;
76850;SDS011;65824;43.726;20.692;2023-03-01T16:38:42;25.23;;;13.50;;
76850;SDS011;65824;43.726;20.692;2023-03-01T16:41:11;28.05;;;15.27;;
76850;SDS011;65824;43.726;20.692;2023-03-01T16:43:42;27.98;;;13.70;;
76850;SDS011;65824;43.726;20.692;2023-03-01T16:48:39;25.25;;;14.02;;